sensor_id;sensor_type;location;lat;lon;timestamp;temperature;humidity
25482;DHT22;13395;50.752;4.268;2022-09-09T00:01:43;15.70;99.90
25482;DHT22;13395;50.752;4.268;2022-09-09T00:07:14;15.80;99.90
25482;DHT22;13395;50.752;4.268;2022-09-09T00:09:47;15.80;99.90
25482;DHT22;13395;50.752;4.268;2022-09-09T00:12:34;15.80;99.90
25482;DHT22;13395;50.752;4.268;2022-09-09T00:15:12;15.70;99.90
25482;DHT22;13395;50.752;4.268;2022-09-09T00:17:46;15.80;99.90
25482;DHT22;13395;50.752;4.268;2022-09-09T00:20:19;15.90;99.90
25482;DHT22;13395;50.752;4.268;2022-09-09T00:23:03;15.80;99.90
25482;DHT22;13395;50.752;4.268;2022-09-09T00:27:58;15.80;99.90
25482;DHT22;13395;50.752;4.268;2022-09-09T00:30:30;15.90;99.90
25482;DHT22;13395;50.752;4.268;2022-09-09T00:33:03;15.90;99.90
25482;DHT22;13395;50.752;4.268;2022-09-09T00:35:37;15.90;99.90
25482;DHT22;13395;50.752;4.268;2022-09-09T00:38:14;15.90;99.90
25482;DHT22;13395;50.752;4.268;2022-09-09T00:43:51;15.90;99.90
25482;DHT22;13395;50.752;4.268;2022-09-09T00:52:30;15.80;99.90
25482;DHT22;13395;50.752;4.268;2022-09-09T00:55:05;15.80;99.90
25482;DHT22;13395;50.752;4.268;2022-09-09T00:57:33;15.80;99.90
25482;DHT22;13395;50.752;4.268;2022-09-09T01:05:46;15.80;99.90
25482;DHT22;13395;50.752;4.268;2022-09-09T01:11:25;15.70;99.90
25482;DHT22;13395;50.752;4.268;2022-09-09T01:16:47;15.60;99.90
25482;DHT22;13395;50.752;4.268;2022-09-09T01:19:20;15.60;99.90
25482;DHT22;13395;50.752;4.268;2022-09-09T01:21:56;15.70;99.90
25482;DHT22;13395;50.752;4.268;2022-09-09T01:25:19;15.70;99.90
25482;DHT22;13395;50.752;4.268;2022-09-09T01:27:23;15.70;99.90
25482;DHT22;13395;50.752;4.268;2022-09-09T01:29:50;15.70;99.90
25482;DHT22;13395;50.752;4.268;2022-09-09T01:32:40;15.70;99.90
25482;DHT22;13395;50.752;4.268;2022-09-09T01:35:10;15.80;99.90
25482;DHT22;13395;50.752;4.268;2022-09-09T01:37:37;15.80;99.90
25482;DHT22;13395;50.752;4.268;2022-09-09T01:40:03;15.80;99.90
25482;DHT22;13395;50.752;4.268;2022-09-09T01:42:29;15.80;99.90
25482;DHT22;13395;50.752;4.268;2022-09-09T01:44:54;15.90;99.90
25482;DHT22;13395;50.752;4.268;2022-09-09T01:47:20;15.90;99.90
25482;DHT22;13395;50.752;4.268;2022-09-09T01:49:46;15.90;99.90
25482;DHT22;13395;50.752;4.268;2022-09-09T01:52:11;15.80;99.90
25482;DHT22;13395;50.752;4.268;2022-09-09T01:54:37;15.90;99.90
25482;DHT22;13395;50.752;4.268;2022-09-09T02:00:14;15.80;99.90
25482;DHT22;13395;50.752;4.268;2022-09-09T02:05:40;15.90;99.90
25482;DHT22;13395;50.752;4.268;2022-09-09T02:08:20;15.90;99.90
25482;DHT22;13395;50.752;4.268;2022-09-09T02:10:50;15.90;99.90
25482;DHT22;13395;50.752;4.268;2022-09-09T02:13:20;16.00;99.90
25482;DHT22;13395;50.752;4.268;2022-09-09T02:18:47;16.00;99.90
25482;DHT22;13395;50.752;4.268;2022-09-09T02:21:14;15.90;99.90
25482;DHT22;13395;50.752;4.268;2022-09-09T02:23:43;16.00;99.90
25482;DHT22;13395;50.752;4.268;2022-09-09T02:26:11;16.00;99.90
25482;DHT22;13395;50.752;4.268;2022-09-09T02:28:39;15.90;99.90
25482;DHT22;13395;50.752;4.268;2022-09-09T02:31:06;15.90;99.90
25482;DHT22;13395;50.752;4.268;2022-09-09T02:33:44;16.00;99.90
25482;DHT22;13395;50.752;4.268;2022-09-09T02:36:12;15.90;99.90
25482;DHT22;13395;50.752;4.268;2022-09-09T02:38:47;15.90;99.90
25482;DHT22;13395;50.752;4.268;2022-09-09T02:41:26;16.00;99.90
25482;DHT22;13395;50.752;4.268;2022-09-09T02:43:53;16.00;99.90
25482;DHT22;13395;50.752;4.268;2022-09-09T02:49:10;15.80;99.90
25482;DHT22;13395;50.752;4.268;2022-09-09T02:54:37;15.90;99.90
25482;DHT22;13395;50.752;4.268;2022-09-09T02:57:21;15.80;99.90
25482;DHT22;13395;50.752;4.268;2022-09-09T02:59:48;15.80;99.90
25482;DHT22;13395;50.752;4.268;2022-09-09T03:02:14;15.90;99.90
25482;DHT22;13395;50.752;4.268;2022-09-09T03:04:40;15.90;99.90
25482;DHT22;13395;50.752;4.268;2022-09-09T03:07:08;15.90;99.90
25482;DHT22;13395;50.752;4.268;2022-09-09T03:09:35;15.80;99.90
25482;DHT22;13395;50.752;4.268;2022-09-09T03:12:01;15.80;99.90
25482;DHT22;13395;50.752;4.268;2022-09-09T03:14:26;15.80;99.90
25482;DHT22;13395;50.752;4.268;2022-09-09T03:16:53;15.70;99.90
25482;DHT22;13395;50.752;4.268;2022-09-09T03:19:19;15.70;99.90
25482;DHT22;13395;50.752;4.268;2022-09-09T03:21:46;15.80;99.90
25482;DHT22;13395;50.752;4.268;2022-09-09T03:24:12;15.80;99.90
25482;DHT22;13395;50.752;4.268;2022-09-09T03:26:40;15.90;99.90
25482;DHT22;13395;50.752;4.268;2022-09-09T03:29:06;15.90;99.90
25482;DHT22;13395;50.752;4.268;2022-09-09T03:31:33;15.80;99.90
25482;DHT22;13395;50.752;4.268;2022-09-09T03:33:59;15.90;99.90
25482;DHT22;13395;50.752;4.268;2022-09-09T03:36:26;15.80;99.90
25482;DHT22;13395;50.752;4.268;2022-09-09T03:38:52;15.90;99.90
25482;DHT22;13395;50.752;4.268;2022-09-09T03:41:20;15.90;99.90
25482;DHT22;13395;50.752;4.268;2022-09-09T03:43:52;16.00;99.90
25482;DHT22;13395;50.752;4.268;2022-09-09T03:46:22;15.90;99.90
25482;DHT22;13395;50.752;4.268;2022-09-09T03:48:48;16.00;99.90
25482;DHT22;13395;50.752;4.268;2022-09-09T03:51:14;16.00;99.90
25482;DHT22;13395;50.752;4.268;2022-09-09T03:53:41;16.00;99.90
25482;DHT22;13395;50.752;4.268;2022-09-09T03:56:07;16.10;99.90
25482;DHT22;13395;50.752;4.268;2022-09-09T03:58:34;16.10;99.90
25482;DHT22;13395;50.752;4.268;2022-09-09T04:03:28;16.10;99.90
25482;DHT22;13395;50.752;4.268;2022-09-09T04:05:55;16.20;99.90
25482;DHT22;13395;50.752;4.268;2022-09-09T04:08:22;16.30;99.90
25482;DHT22;13395;50.752;4.268;2022-09-09T04:10:49;16.20;99.90
25482;DHT22;13395;50.752;4.268;2022-09-09T04:13:15;16.30;99.90
25482;DHT22;13395;50.752;4.268;2022-09-09T04:15:59;16.20;99.90
25482;DHT22;13395;50.752;4.268;2022-09-09T04:18:26;16.30;99.90
25482;DHT22;13395;50.752;4.268;2022-09-09T04:20:54;16.10;99.90
25482;DHT22;13395;50.752;4.268;2022-09-09T04:23:20;16.10;99.90
25482;DHT22;13395;50.752;4.268;2022-09-09T04:25:51;16.10;99.90
25482;DHT22;13395;50.752;4.268;2022-09-09T04:28:19;16.00;99.90
25482;DHT22;13395;50.752;4.268;2022-09-09T04:30:45;16.00;99.90
25482;DHT22;13395;50.752;4.268;2022-09-09T04:33:12;15.90;99.90
25482;DHT22;13395;50.752;4.268;2022-09-09T04:35:38;16.00;99.90
25482;DHT22;13395;50.752;4.268;2022-09-09T04:38:05;15.90;99.90
25482;DHT22;13395;50.752;4.268;2022-09-09T04:40:32;16.00;99.90
25482;DHT22;13395;50.752;4.268;2022-09-09T04:43:00;16.00;99.90
25482;DHT22;13395;50.752;4.268;2022-09-09T04:45:27;15.90;99.90
25482;DHT22;13395;50.752;4.268;2022-09-09T04:47:53;15.90;99.90
25482;DHT22;13395;50.752;4.268;2022-09-09T04:50:19;15.90;99.90
25482;DHT22;13395;50.752;4.268;2022-09-09T04:52:45;15.90;99.90
25482;DHT22;13395;50.752;4.268;2022-09-09T04:55:10;15.90;99.90
25482;DHT22;13395;50.752;4.268;2022-09-09T04:57:38;15.90;99.90
25482;DHT22;13395;50.752;4.268;2022-09-09T05:00:04;16.00;99.90
25482;DHT22;13395;50.752;4.268;2022-09-09T05:02:30;16.10;99.90
25482;DHT22;13395;50.752;4.268;2022-09-09T05:04:57;16.10;99.90
25482;DHT22;13395;50.752;4.268;2022-09-09T05:07:23;16.10;99.90
25482;DHT22;13395;50.752;4.268;2022-09-09T05:09:49;16.10;99.90
25482;DHT22;13395;50.752;4.268;2022-09-09T05:12:15;16.20;99.90
25482;DHT22;13395;50.752;4.268;2022-09-09T05:14:42;16.30;99.90
25482;DHT22;13395;50.752;4.268;2022-09-09T05:17:10;16.30;99.90
25482;DHT22;13395;50.752;4.268;2022-09-09T05:19:36;16.30;99.90
25482;DHT22;13395;50.752;4.268;2022-09-09T05:22:01;16.30;99.90
25482;DHT22;13395;50.752;4.268;2022-09-09T05:24:27;16.30;99.90
25482;DHT22;13395;50.752;4.268;2022-09-09T05:26:53;16.40;99.90
25482;DHT22;13395;50.752;4.268;2022-09-09T05:29:19;16.50;99.90
25482;DHT22;13395;50.752;4.268;2022-09-09T05:31:45;16.50;99.90
25482;DHT22;13395;50.752;4.268;2022-09-09T05:34:12;16.50;99.90
25482;DHT22;13395;50.752;4.268;2022-09-09T05:36:38;16.40;99.90
25482;DHT22;13395;50.752;4.268;2022-09-09T05:39:04;16.40;99.90
25482;DHT22;13395;50.752;4.268;2022-09-09T05:41:29;16.50;99.90
25482;DHT22;13395;50.752;4.268;2022-09-09T05:43:56;16.50;99.90
25482;DHT22;13395;50.752;4.268;2022-09-09T05:46:25;16.60;99.90
25482;DHT22;13395;50.752;4.268;2022-09-09T05:48:52;16.50;99.90
25482;DHT22;13395;50.752;4.268;2022-09-09T05:51:28;16.50;99.90
25482;DHT22;13395;50.752;4.268;2022-09-09T05:53:55;16.50;99.90
25482;DHT22;13395;50.752;4.268;2022-09-09T05:56:25;16.50;99.90
25482;DHT22;13395;50.752;4.268;2022-09-09T05:58:52;16.50;99.90
25482;DHT22;13395;50.752;4.268;2022-09-09T06:01:23;16.60;99.90
25482;DHT22;13395;50.752;4.268;2022-09-09T06:03:50;16.70;99.90
25482;DHT22;13395;50.752;4.268;2022-09-09T06:06:19;16.80;99.90
25482;DHT22;13395;50.752;4.268;2022-09-09T06:08:50;17.00;99.90
25482;DHT22;13395;50.752;4.268;2022-09-09T06:11:18;17.00;99.90
25482;DHT22;13395;50.752;4.268;2022-09-09T06:13:44;17.10;99.90
25482;DHT22;13395;50.752;4.268;2022-09-09T06:16:12;17.00;99.90
25482;DHT22;13395;50.752;4.268;2022-09-09T06:18:38;17.10;99.90
25482;DHT22;13395;50.752;4.268;2022-09-09T06:21:07;17.10;99.90
25482;DHT22;13395;50.752;4.268;2022-09-09T06:23:34;17.10;99.90
25482;DHT22;13395;50.752;4.268;2022-09-09T06:26:05;17.30;99.90
25482;DHT22;13395;50.752;4.268;2022-09-09T06:28:34;17.40;99.90
25482;DHT22;13395;50.752;4.268;2022-09-09T06:31:05;17.40;99.90
25482;DHT22;13395;50.752;4.268;2022-09-09T06:33:33;17.30;99.90
25482;DHT22;13395;50.752;4.268;2022-09-09T06:36:00;17.40;99.90
25482;DHT22;13395;50.752;4.268;2022-09-09T06:38:26;17.30;99.90
25482;DHT22;13395;50.752;4.268;2022-09-09T06:40:54;17.20;99.90
25482;DHT22;13395;50.752;4.268;2022-09-09T06:43:21;17.30;99.90
25482;DHT22;13395;50.752;4.268;2022-09-09T06:46:01;17.30;99.90
25482;DHT22;13395;50.752;4.268;2022-09-09T06:48:28;17.30;99.90
25482;DHT22;13395;50.752;4.268;2022-09-09T06:53:27;17.40;99.90
25482;DHT22;13395;50.752;4.268;2022-09-09T06:55:52;17.70;99.90
25482;DHT22;13395;50.752;4.268;2022-09-09T06:58:18;17.80;99.90
25482;DHT22;13395;50.752;4.268;2022-09-09T07:00:44;17.80;99.90
25482;DHT22;13395;50.752;4.268;2022-09-09T07:03:10;17.80;99.90
25482;DHT22;13395;50.752;4.268;2022-09-09T07:05:36;17.80;99.90
25482;DHT22;13395;50.752;4.268;2022-09-09T07:08:02;17.70;99.90
25482;DHT22;13395;50.752;4.268;2022-09-09T07:10:28;17.80;99.90
25482;DHT22;13395;50.752;4.268;2022-09-09T07:12:54;17.70;99.90
25482;DHT22;13395;50.752;4.268;2022-09-09T07:15:20;17.70;99.90
25482;DHT22;13395;50.752;4.268;2022-09-09T07:17:46;17.70;99.90
25482;DHT22;13395;50.752;4.268;2022-09-09T07:20:13;17.70;99.90
25482;DHT22;13395;50.752;4.268;2022-09-09T07:22:40;17.70;99.90
25482;DHT22;13395;50.752;4.268;2022-09-09T07:25:06;17.70;99.90
25482;DHT22;13395;50.752;4.268;2022-09-09T07:27:33;17.70;99.90
25482;DHT22;13395;50.752;4.268;2022-09-09T07:29:58;17.70;99.90
25482;DHT22;13395;50.752;4.268;2022-09-09T07:32:24;17.70;99.90
25482;DHT22;13395;50.752;4.268;2022-09-09T07:34:51;17.50;99.90
25482;DHT22;13395;50.752;4.268;2022-09-09T07:37:16;17.40;99.90
25482;DHT22;13395;50.752;4.268;2022-09-09T07:39:43;17.30;99.90
25482;DHT22;13395;50.752;4.268;2022-09-09T07:42:09;17.10;99.90
25482;DHT22;13395;50.752;4.268;2022-09-09T07:44:36;17.10;99.90
25482;DHT22;13395;50.752;4.268;2022-09-09T07:47:05;17.00;99.90
25482;DHT22;13395;50.752;4.268;2022-09-09T07:49:30;17.10;99.90
25482;DHT22;13395;50.752;4.268;2022-09-09T07:51:57;17.20;99.90
25482;DHT22;13395;50.752;4.268;2022-09-09T07:54:23;17.40;99.90
25482;DHT22;13395;50.752;4.268;2022-09-09T07:56:50;17.60;99.90
25482;DHT22;13395;50.752;4.268;2022-09-09T07:59:16;18.00;99.90
25482;DHT22;13395;50.752;4.268;2022-09-09T08:01:49;19.00;99.90
25482;DHT22;13395;50.752;4.268;2022-09-09T08:04:19;19.40;99.90
25482;DHT22;13395;50.752;4.268;2022-09-09T08:06:47;20.50;99.90
25482;DHT22;13395;50.752;4.268;2022-09-09T08:09:14;20.80;99.90
25482;DHT22;13395;50.752;4.268;2022-09-09T08:11:40;21.10;99.90
25482;DHT22;13395;50.752;4.268;2022-09-09T08:14:07;21.20;99.90
25482;DHT22;13395;50.752;4.268;2022-09-09T08:16:35;20.90;99.90
25482;DHT22;13395;50.752;4.268;2022-09-09T08:19:03;20.40;99.90
25482;DHT22;13395;50.752;4.268;2022-09-09T08:21:31;20.10;99.90
25482;DHT22;13395;50.752;4.268;2022-09-09T08:24:00;19.80;99.90
25482;DHT22;13395;50.752;4.268;2022-09-09T08:26:31;19.40;99.90
25482;DHT22;13395;50.752;4.268;2022-09-09T08:28:58;19.20;99.90
25482;DHT22;13395;50.752;4.268;2022-09-09T08:31:27;19.20;99.90
25482;DHT22;13395;50.752;4.268;2022-09-09T08:33:53;19.10;99.90
25482;DHT22;13395;50.752;4.268;2022-09-09T08:36:22;19.00;99.90
25482;DHT22;13395;50.752;4.268;2022-09-09T08:38:49;18.80;99.90
25482;DHT22;13395;50.752;4.268;2022-09-09T08:41:35;18.60;99.90
25482;DHT22;13395;50.752;4.268;2022-09-09T08:47:09;18.30;99.90
25482;DHT22;13395;50.752;4.268;2022-09-09T08:52:36;18.40;99.90
25482;DHT22;13395;50.752;4.268;2022-09-09T08:55:27;18.40;99.90
25482;DHT22;13395;50.752;4.268;2022-09-09T08:57:55;18.30;99.90
25482;DHT22;13395;50.752;4.268;2022-09-09T09:00:22;18.30;99.90
25482;DHT22;13395;50.752;4.268;2022-09-09T09:06:41;18.00;99.90
25482;DHT22;13395;50.752;4.268;2022-09-09T09:08:51;17.90;99.90
25482;DHT22;13395;50.752;4.268;2022-09-09T09:11:19;17.70;99.90
25482;DHT22;13395;50.752;4.268;2022-09-09T09:14:15;17.70;99.90
25482;DHT22;13395;50.752;4.268;2022-09-09T09:16:51;17.60;99.90
25482;DHT22;13395;50.752;4.268;2022-09-09T09:19:17;17.60;99.90
25482;DHT22;13395;50.752;4.268;2022-09-09T09:22:01;17.50;99.90
25482;DHT22;13395;50.752;4.268;2022-09-09T09:27:14;17.30;99.90
25482;DHT22;13395;50.752;4.268;2022-09-09T09:29:41;17.40;99.90
25482;DHT22;13395;50.752;4.268;2022-09-09T09:32:13;17.50;99.90
25482;DHT22;13395;50.752;4.268;2022-09-09T09:34:39;17.50;99.90
25482;DHT22;13395;50.752;4.268;2022-09-09T09:37:17;17.50;99.90
25482;DHT22;13395;50.752;4.268;2022-09-09T09:39:46;17.60;99.90
25482;DHT22;13395;50.752;4.268;2022-09-09T09:42:14;17.50;99.90
25482;DHT22;13395;50.752;4.268;2022-09-09T09:44:41;17.60;99.90
25482;DHT22;13395;50.752;4.268;2022-09-09T09:47:20;17.70;99.90
25482;DHT22;13395;50.752;4.268;2022-09-09T09:50:00;17.70;99.90
25482;DHT22;13395;50.752;4.268;2022-09-09T09:52:31;17.70;99.90
25482;DHT22;13395;50.752;4.268;2022-09-09T09:55:03;17.80;99.90
25482;DHT22;13395;50.752;4.268;2022-09-09T09:57:30;17.80;99.90
25482;DHT22;13395;50.752;4.268;2022-09-09T10:00:12;17.80;99.90
25482;DHT22;13395;50.752;4.268;2022-09-09T10:02:40;17.90;99.90
25482;DHT22;13395;50.752;4.268;2022-09-09T10:05:22;18.00;99.90
25482;DHT22;13395;50.752;4.268;2022-09-09T10:08:02;18.00;99.90
25482;DHT22;13395;50.752;4.268;2022-09-09T10:13:29;18.00;99.90
25482;DHT22;13395;50.752;4.268;2022-09-09T10:19:02;18.00;99.90
25482;DHT22;13395;50.752;4.268;2022-09-09T10:27:11;18.30;99.90
25482;DHT22;13395;50.752;4.268;2022-09-09T10:32:37;18.50;99.90
25482;DHT22;13395;50.752;4.268;2022-09-09T10:46:22;19.00;99.90
25482;DHT22;13395;50.752;4.268;2022-09-09T10:55:10;19.20;99.90
25482;DHT22;13395;50.752;4.268;2022-09-09T11:00:29;19.30;99.90
25482;DHT22;13395;50.752;4.268;2022-09-09T11:03:02;19.20;99.90
25482;DHT22;13395;50.752;4.268;2022-09-09T11:05:39;19.10;99.90
25482;DHT22;13395;50.752;4.268;2022-09-09T11:08:12;19.30;99.90
25482;DHT22;13395;50.752;4.268;2022-09-09T11:10:48;19.40;99.90
25482;DHT22;13395;50.752;4.268;2022-09-09T11:16:13;19.80;99.90
25482;DHT22;13395;50.752;4.268;2022-09-09T11:18:41;19.80;99.90
25482;DHT22;13395;50.752;4.268;2022-09-09T11:21:20;19.90;99.90
25482;DHT22;13395;50.752;4.268;2022-09-09T11:24:02;19.80;99.90
25482;DHT22;13395;50.752;4.268;2022-09-09T11:26:37;19.80;99.90
25482;DHT22;13395;50.752;4.268;2022-09-09T11:29:12;19.90;99.90
25482;DHT22;13395;50.752;4.268;2022-09-09T11:37:41;19.90;99.90
25482;DHT22;13395;50.752;4.268;2022-09-09T11:42:30;19.90;99.90
25482;DHT22;13395;50.752;4.268;2022-09-09T11:44:56;20.00;99.90
25482;DHT22;13395;50.752;4.268;2022-09-09T11:47:29;19.90;99.90
25482;DHT22;13395;50.752;4.268;2022-09-09T11:52:37;19.70;99.90
25482;DHT22;13395;50.752;4.268;2022-09-09T11:58:00;19.70;99.90
25482;DHT22;13395;50.752;4.268;2022-09-09T12:00:33;19.70;99.90
25482;DHT22;13395;50.752;4.268;2022-09-09T12:03:00;19.80;99.90
25482;DHT22;13395;50.752;4.268;2022-09-09T12:05:39;19.70;99.90
25482;DHT22;13395;50.752;4.268;2022-09-09T12:08:09;19.80;99.90
25482;DHT22;13395;50.752;4.268;2022-09-09T12:10:39;19.80;99.90
25482;DHT22;13395;50.752;4.268;2022-09-09T12:13:20;19.90;99.90
25482;DHT22;13395;50.752;4.268;2022-09-09T12:15:57;19.90;99.90
25482;DHT22;13395;50.752;4.268;2022-09-09T12:18:34;19.90;99.90
25482;DHT22;13395;50.752;4.268;2022-09-09T12:21:18;20.10;99.90
25482;DHT22;13395;50.752;4.268;2022-09-09T12:23:50;20.60;99.90
25482;DHT22;13395;50.752;4.268;2022-09-09T12:26:32;20.80;99.90
25482;DHT22;13395;50.752;4.268;2022-09-09T12:29:09;20.80;99.90
25482;DHT22;13395;50.752;4.268;2022-09-09T12:32:04;20.90;99.90
25482;DHT22;13395;50.752;4.268;2022-09-09T12:35:02;21.00;99.90
25482;DHT22;13395;50.752;4.268;2022-09-09T12:37:40;21.00;99.90
25482;DHT22;13395;50.752;4.268;2022-09-09T12:40:25;21.40;99.90
25482;DHT22;13395;50.752;4.268;2022-09-09T12:42:51;21.40;99.90
25482;DHT22;13395;50.752;4.268;2022-09-09T12:45:29;21.20;99.90
25482;DHT22;13395;50.752;4.268;2022-09-09T12:48:08;20.90;99.90
25482;DHT22;13395;50.752;4.268;2022-09-09T12:50:43;20.60;99.90
25482;DHT22;13395;50.752;4.268;2022-09-09T12:53:22;20.50;99.90
25482;DHT22;13395;50.752;4.268;2022-09-09T12:58:19;20.10;99.90
25482;DHT22;13395;50.752;4.268;2022-09-09T13:00:53;20.20;99.90
25482;DHT22;13395;50.752;4.268;2022-09-09T13:03:21;20.60;99.90
25482;DHT22;13395;50.752;4.268;2022-09-09T13:05:48;21.40;99.90
25482;DHT22;13395;50.752;4.268;2022-09-09T13:08:15;22.00;99.90
25482;DHT22;13395;50.752;4.268;2022-09-09T13:13:27;22.60;99.90
25482;DHT22;13395;50.752;4.268;2022-09-09T13:15:59;22.80;99.90
25482;DHT22;13395;50.752;4.268;2022-09-09T13:18:36;23.10;99.90
25482;DHT22;13395;50.752;4.268;2022-09-09T13:21:03;23.00;99.90
25482;DHT22;13395;50.752;4.268;2022-09-09T13:23:31;22.70;99.90
25482;DHT22;13395;50.752;4.268;2022-09-09T13:26:03;22.30;99.90
25482;DHT22;13395;50.752;4.268;2022-09-09T13:28:30;22.60;99.90
25482;DHT22;13395;50.752;4.268;2022-09-09T13:30:57;23.10;99.90
25482;DHT22;13395;50.752;4.268;2022-09-09T13:33:33;23.30;99.90
25482;DHT22;13395;50.752;4.268;2022-09-09T13:36:00;23.10;99.90
25482;DHT22;13395;50.752;4.268;2022-09-09T13:38:31;22.60;99.90
25482;DHT22;13395;50.752;4.268;2022-09-09T13:40:59;22.50;99.90
25482;DHT22;13395;50.752;4.268;2022-09-09T13:43:31;22.60;99.90
25482;DHT22;13395;50.752;4.268;2022-09-09T13:46:01;22.50;99.90
25482;DHT22;13395;50.752;4.268;2022-09-09T13:48:27;22.40;99.90
25482;DHT22;13395;50.752;4.268;2022-09-09T13:51:03;22.30;99.90
25482;DHT22;13395;50.752;4.268;2022-09-09T13:53:32;22.40;99.90
25482;DHT22;13395;50.752;4.268;2022-09-09T13:55:58;22.40;99.90
25482;DHT22;13395;50.752;4.268;2022-09-09T13:58:25;22.30;99.90
25482;DHT22;13395;50.752;4.268;2022-09-09T14:00:52;22.20;99.90
25482;DHT22;13395;50.752;4.268;2022-09-09T14:03:19;22.10;99.90
25482;DHT22;13395;50.752;4.268;2022-09-09T14:05:45;22.00;99.90
25482;DHT22;13395;50.752;4.268;2022-09-09T14:08:19;21.90;99.90
25482;DHT22;13395;50.752;4.268;2022-09-09T14:10:46;21.80;99.90
25482;DHT22;13395;50.752;4.268;2022-09-09T14:13:12;21.60;99.90
25482;DHT22;13395;50.752;4.268;2022-09-09T14:15:38;21.40;99.90
25482;DHT22;13395;50.752;4.268;2022-09-09T14:18:04;21.50;99.90
25482;DHT22;13395;50.752;4.268;2022-09-09T14:20:29;21.70;99.90
25482;DHT22;13395;50.752;4.268;2022-09-09T14:22:55;21.60;99.90
25482;DHT22;13395;50.752;4.268;2022-09-09T14:25:22;21.60;99.90
25482;DHT22;13395;50.752;4.268;2022-09-09T14:27:48;21.70;99.90
25482;DHT22;13395;50.752;4.268;2022-09-09T14:30:14;21.80;99.90
25482;DHT22;13395;50.752;4.268;2022-09-09T14:32:40;21.80;99.90
25482;DHT22;13395;50.752;4.268;2022-09-09T14:35:06;21.60;99.90
25482;DHT22;13395;50.752;4.268;2022-09-09T14:37:32;21.50;99.90
25482;DHT22;13395;50.752;4.268;2022-09-09T14:39:58;21.40;99.90
25482;DHT22;13395;50.752;4.268;2022-09-09T14:42:23;21.50;99.90
25482;DHT22;13395;50.752;4.268;2022-09-09T14:44:49;21.60;99.90
25482;DHT22;13395;50.752;4.268;2022-09-09T14:47:14;21.80;99.90
25482;DHT22;13395;50.752;4.268;2022-09-09T14:49:40;21.90;99.90
25482;DHT22;13395;50.752;4.268;2022-09-09T14:52:06;21.80;99.90
25482;DHT22;13395;50.752;4.268;2022-09-09T14:54:32;21.70;99.90
25482;DHT22;13395;50.752;4.268;2022-09-09T14:56:58;21.50;99.90
25482;DHT22;13395;50.752;4.268;2022-09-09T14:59:24;21.50;99.90
25482;DHT22;13395;50.752;4.268;2022-09-09T15:01:50;21.40;99.90
25482;DHT22;13395;50.752;4.268;2022-09-09T15:04:15;21.40;99.90
25482;DHT22;13395;50.752;4.268;2022-09-09T15:06:42;21.40;99.90
25482;DHT22;13395;50.752;4.268;2022-09-09T15:09:10;21.60;99.90
25482;DHT22;13395;50.752;4.268;2022-09-09T15:11:37;21.60;99.90
25482;DHT22;13395;50.752;4.268;2022-09-09T15:14:04;21.60;99.90
25482;DHT22;13395;50.752;4.268;2022-09-09T15:16:30;21.40;99.90
25482;DHT22;13395;50.752;4.268;2022-09-09T15:18:58;21.40;99.90
25482;DHT22;13395;50.752;4.268;2022-09-09T15:21:26;21.40;99.90
25482;DHT22;13395;50.752;4.268;2022-09-09T15:23:52;21.40;99.90
25482;DHT22;13395;50.752;4.268;2022-09-09T15:26:19;21.40;99.90
25482;DHT22;13395;50.752;4.268;2022-09-09T15:28:46;21.10;99.90
25482;DHT22;13395;50.752;4.268;2022-09-09T15:33:54;20.90;99.90
25482;DHT22;13395;50.752;4.268;2022-09-09T15:36:36;20.90;99.90
25482;DHT22;13395;50.752;4.268;2022-09-09T15:39:04;21.00;99.90
25482;DHT22;13395;50.752;4.268;2022-09-09T15:41:30;21.00;99.90
25482;DHT22;13395;50.752;4.268;2022-09-09T15:44:00;21.00;99.90
25482;DHT22;13395;50.752;4.268;2022-09-09T15:46:37;21.00;99.90
25482;DHT22;13395;50.752;4.268;2022-09-09T15:51:32;21.20;99.90
25482;DHT22;13395;50.752;4.268;2022-09-09T15:53:59;21.30;99.90
25482;DHT22;13395;50.752;4.268;2022-09-09T15:56:26;21.50;99.90
25482;DHT22;13395;50.752;4.268;2022-09-09T15:58:53;21.60;99.90
25482;DHT22;13395;50.752;4.268;2022-09-09T16:01:19;21.50;99.90
25482;DHT22;13395;50.752;4.268;2022-09-09T16:03:45;21.50;99.90
25482;DHT22;13395;50.752;4.268;2022-09-09T16:06:20;21.40;99.90
25482;DHT22;13395;50.752;4.268;2022-09-09T16:08:48;21.30;99.90
25482;DHT22;13395;50.752;4.268;2022-09-09T16:11:23;21.30;99.90
25482;DHT22;13395;50.752;4.268;2022-09-09T16:13:51;21.40;99.90
25482;DHT22;13395;50.752;4.268;2022-09-09T16:16:20;21.40;99.90
25482;DHT22;13395;50.752;4.268;2022-09-09T16:18:49;21.40;99.90
25482;DHT22;13395;50.752;4.268;2022-09-09T16:21:21;21.30;99.90
25482;DHT22;13395;50.752;4.268;2022-09-09T16:23:47;21.10;99.90
25482;DHT22;13395;50.752;4.268;2022-09-09T16:26:16;20.80;99.90
25482;DHT22;13395;50.752;4.268;2022-09-09T16:28:42;20.70;99.90
25482;DHT22;13395;50.752;4.268;2022-09-09T16:31:10;20.60;99.90
25482;DHT22;13395;50.752;4.268;2022-09-09T16:33:36;20.40;99.90
25482;DHT22;13395;50.752;4.268;2022-09-09T16:36:14;20.40;99.90
25482;DHT22;13395;50.752;4.268;2022-09-09T16:38:41;20.40;99.90
25482;DHT22;13395;50.752;4.268;2022-09-09T16:41:09;20.40;99.90
25482;DHT22;13395;50.752;4.268;2022-09-09T16:43:36;20.20;99.90
25482;DHT22;13395;50.752;4.268;2022-09-09T16:46:32;20.20;99.90
25482;DHT22;13395;50.752;4.268;2022-09-09T16:49:00;20.10;99.90
25482;DHT22;13395;50.752;4.268;2022-09-09T16:51:42;20.00;99.90
25482;DHT22;13395;50.752;4.268;2022-09-09T16:54:09;20.20;99.90
25482;DHT22;13395;50.752;4.268;2022-09-09T16:56:37;20.30;99.90
25482;DHT22;13395;50.752;4.268;2022-09-09T16:59:06;20.40;99.90
25482;DHT22;13395;50.752;4.268;2022-09-09T17:01:35;20.40;99.90
25482;DHT22;13395;50.752;4.268;2022-09-09T17:04:05;20.40;99.90
25482;DHT22;13395;50.752;4.268;2022-09-09T17:06:32;20.30;99.90
25482;DHT22;13395;50.752;4.268;2022-09-09T17:09:04;20.30;99.90
25482;DHT22;13395;50.752;4.268;2022-09-09T17:11:30;20.20;99.90
25482;DHT22;13395;50.752;4.268;2022-09-09T17:13:56;19.80;99.90
25482;DHT22;13395;50.752;4.268;2022-09-09T17:16:27;19.60;99.90
25482;DHT22;13395;50.752;4.268;2022-09-09T17:18:54;19.50;99.90
25482;DHT22;13395;50.752;4.268;2022-09-09T17:21:22;19.40;99.90
25482;DHT22;13395;50.752;4.268;2022-09-09T17:23:49;19.20;99.90
25482;DHT22;13395;50.752;4.268;2022-09-09T17:26:17;19.10;99.90
25482;DHT22;13395;50.752;4.268;2022-09-09T17:28:43;19.10;99.90
25482;DHT22;13395;50.752;4.268;2022-09-09T17:31:12;19.10;99.90
25482;DHT22;13395;50.752;4.268;2022-09-09T17:33:40;19.10;99.90
25482;DHT22;13395;50.752;4.268;2022-09-09T17:36:28;19.00;99.90
25482;DHT22;13395;50.752;4.268;2022-09-09T17:38:55;18.80;99.90
25482;DHT22;13395;50.752;4.268;2022-09-09T17:41:23;18.80;99.90
25482;DHT22;13395;50.752;4.268;2022-09-09T17:43:50;18.70;99.90
25482;DHT22;13395;50.752;4.268;2022-09-09T17:46:20;18.70;99.90